createdAt,value
2022-07-29T00:00:25.753Z,68.44
2022-07-29T00:01:25.911Z,68.74
2022-07-29T00:02:25.693Z,69.05
2022-07-29T00:03:25.678Z,68.65
2022-07-29T00:04:25.583Z,68.85
2022-07-29T00:05:25.586Z,68.95
2022-07-29T00:06:25.640Z,69.25
2022-07-29T00:07:25.632Z,69.95
2022-07-29T00:08:25.595Z,69.65
2022-07-29T00:09:25.691Z,69.18
2022-07-29T00:10:25.671Z,69.18
2022-07-29T00:11:25.846Z,68.68
2022-07-29T00:12:26.776Z,68.57
2022-07-29T00:13:32.269Z,68.98
2022-07-29T00:14:26.279Z,69.38
2022-07-29T00:15:25.723Z,68.77
2022-07-29T00:16:25.701Z,68.68
2022-07-29T00:17:25.662Z,69.28
2022-07-29T00:18:25.722Z,69.08
2022-07-29T00:19:25.784Z,68.98
2022-07-29T00:20:25.763Z,69.59
2022-07-29T00:21:32.972Z,69.28
2022-07-29T00:22:25.730Z,69.38
2022-07-29T00:23:25.162Z,69.99
2022-07-29T00:24:25.166Z,69.38
2022-07-29T00:25:25.152Z,69.08
2022-07-29T00:26:25.143Z,68.77
2022-07-29T00:27:25.120Z,67.57
2022-07-29T00:28:25.134Z,67.67
2022-07-29T00:29:34.214Z,68.57
2022-07-29T00:30:26.107Z,68.77
2022-07-29T00:31:25.124Z,68.68
2022-07-29T00:32:25.091Z,68.98
2022-07-29T00:33:25.054Z,68.48
2022-07-29T00:34:25.044Z,69.28
2022-07-29T00:35:25.022Z,68.98
2022-07-29T00:36:25.038Z,68.68
2022-07-29T00:37:25.462Z,69.79
2022-07-29T00:38:25.003Z,69.99
2022-07-29T00:39:24.998Z,68.98
2022-07-29T00:40:24.983Z,68.77
2022-07-29T00:41:24.963Z,68.57
2022-07-29T00:42:24.963Z,68.77
2022-07-29T00:43:24.963Z,68.98
2022-07-29T00:44:24.935Z,68.48
2022-07-29T00:45:24.915Z,68.77
2022-07-29T00:46:24.994Z,69.48
2022-07-29T00:47:24.887Z,69.79
2022-07-29T00:48:24.907Z,69.42
2022-07-29T00:49:24.913Z,69.01
2022-07-29T00:50:27.119Z,69.11
2022-07-29T00:51:24.848Z,69.21
2022-07-29T00:52:24.847Z,69.42
2022-07-29T00:53:24.844Z,69.82
2022-07-29T00:54:24.827Z,69.72
2022-07-29T00:55:24.806Z,69.31
2022-07-29T00:56:24.807Z,69.31
2022-07-29T00:57:24.859Z,69.52
2022-07-29T00:58:24.799Z,69.62
2022-07-29T00:59:24.778Z,69.52
2022-07-29T01:00:26.290Z,69.82
2022-07-29T01:01:24.816Z,70.12
2022-07-29T01:02:24.845Z,70.12
2022-07-29T01:03:24.741Z,69.62
2022-07-29T01:04:24.719Z,69.82
2022-07-29T01:05:24.720Z,70.62
2022-07-29T01:06:24.686Z,69.92
2022-07-29T01:07:24.679Z,70.12
2022-07-29T01:08:24.692Z,69.82
2022-07-29T01:09:45.144Z,70.02
2022-07-29T01:10:25.999Z,70.12
2022-07-29T01:11:24.632Z,70.12
2022-07-29T01:12:24.639Z,69.92
2022-07-29T01:13:24.622Z,70.02
2022-07-29T01:14:24.620Z,70.53
2022-07-29T01:15:24.586Z,70.12
2022-07-29T01:16:24.700Z,69.62
2022-07-29T01:17:24.723Z,69.72
2022-07-29T01:18:24.560Z,70.22
2022-07-29T01:19:24.560Z,70.02
2022-07-29T01:20:24.539Z,70.02
2022-07-29T01:21:25.523Z,69.72
2022-07-29T01:22:24.523Z,69.92
2022-07-29T01:23:24.529Z,70.02
2022-07-29T01:24:24.494Z,70.53
2022-07-29T01:25:31.783Z,70.73
2022-07-29T01:26:24.477Z,70.73
2022-07-29T01:27:24.465Z,70.62
2022-07-29T01:28:24.445Z,71.03
2022-07-29T01:29:24.435Z,70.42
2022-07-29T01:30:24.436Z,70.42
2022-07-29T01:31:26.426Z,70.83
2022-07-29T01:32:28.969Z,71.13
2022-07-29T01:33:25.383Z,70.93
2022-07-29T01:34:24.395Z,71.33
2022-07-29T01:35:24.364Z,70.32
2022-07-29T01:36:24.355Z,69.65
2022-07-29T01:37:24.335Z,70.76
2022-07-29T01:38:24.336Z,69.95
2022-07-29T01:39:24.329Z,70.76
2022-07-29T01:40:24.314Z,70.76
2022-07-29T01:41:24.287Z,70.36
2022-07-29T01:42:24.297Z,70.15
2022-07-29T01:43:24.268Z,70.66
2022-07-29T01:44:24.288Z,70.56
2022-07-29T01:45:24.246Z,70.56
2022-07-29T01:46:24.264Z,70.83
2022-07-29T01:47:24.271Z,70.86
2022-07-29T01:48:24.231Z,70.66
2022-07-29T01:49:24.296Z,70.15
2022-07-29T01:50:24.195Z,70.66
2022-07-29T01:51:24.175Z,71.06
2022-07-29T01:52:24.167Z,70.46
2022-07-29T01:53:24.160Z,70.96
2022-07-29T01:54:24.161Z,70.76
2022-07-29T01:55:24.148Z,71.06
2022-07-29T01:56:24.147Z,71.37
2022-07-29T01:57:24.122Z,71.17
2022-07-29T01:58:24.120Z,70.66
2022-07-29T01:59:24.116Z,70.96
2022-07-29T02:00:24.087Z,70.96
2022-07-29T02:01:24.117Z,71.37
2022-07-29T02:02:24.076Z,70.96
2022-07-29T02:03:24.049Z,70.96
2022-07-29T02:04:29.181Z,71.67
2022-07-29T02:05:25.090Z,71.87
2022-07-29T02:06:24.020Z,71.06
2022-07-29T02:07:23.999Z,72.61
2022-07-29T02:08:24.012Z,71.80
2022-07-29T02:09:23.992Z,72.11
2022-07-29T02:10:25.999Z,71.50
2022-07-29T02:11:23.959Z,71.80
2022-07-29T02:12:23.960Z,72.11
2022-07-29T02:13:23.940Z,71.80
2022-07-29T02:14:23.932Z,72.31
2022-07-29T02:15:23.932Z,72.91
2022-07-29T02:16:23.984Z,72.71
2022-07-29T02:17:23.898Z,72.41
2022-07-29T02:18:23.908Z,72.21
2022-07-29T02:19:23.861Z,72.21
2022-07-29T02:20:23.860Z,71.80
2022-07-29T02:21:23.861Z,72.61
2022-07-29T02:22:23.850Z,72.31
2022-07-29T02:23:23.825Z,71.50
2022-07-29T02:24:23.824Z,71.40
2022-07-29T02:25:23.803Z,71.91
2022-07-29T02:26:24.143Z,72.00
2022-07-29T02:27:23.776Z,71.70
2022-07-29T02:28:23.772Z,71.40
2022-07-29T02:29:23.752Z,72.00
2022-07-29T02:30:23.752Z,71.70
2022-07-29T02:31:23.793Z,72.21
2022-07-29T02:32:23.737Z,72.31
2022-07-29T02:33:23.724Z,72.00
2022-07-29T02:34:23.713Z,72.00
2022-07-29T02:35:23.698Z,72.51
2022-07-29T02:36:23.696Z,72.24
2022-07-29T02:37:23.664Z,72.04
2022-07-29T02:38:23.675Z,72.34
2022-07-29T02:39:23.655Z,71.84
2022-07-29T02:40:23.644Z,72.24
2022-07-29T02:41:23.645Z,71.73
2022-07-29T02:42:23.624Z,72.04
2022-07-29T02:43:23.605Z,71.73
2022-07-29T02:44:23.604Z,71.94
2022-07-29T02:45:23.577Z,72.14
2022-07-29T02:46:28.248Z,71.94
2022-07-29T02:47:24.585Z,71.84
2022-07-29T02:48:23.556Z,72.24
2022-07-29T02:49:23.565Z,72.44
2022-07-29T02:50:23.550Z,72.64
2022-07-29T02:51:43.687Z,72.95
2022-07-29T02:52:24.508Z,72.44
2022-07-29T02:53:23.509Z,72.64
2022-07-29T02:54:23.488Z,72.75
2022-07-29T02:55:23.468Z,72.44
2022-07-29T02:56:23.469Z,72.95
2022-07-29T02:57:23.457Z,73.05
2022-07-29T02:58:23.448Z,72.85
2022-07-29T02:59:23.429Z,73.25
2022-07-29T03:00:23.420Z,73.05
2022-07-29T03:01:23.437Z,73.15
2022-07-29T03:02:23.432Z,73.08
2022-07-29T03:03:23.380Z,73.39
2022-07-29T03:04:23.422Z,73.39
2022-07-29T03:05:23.358Z,73.90
2022-07-29T03:06:31.053Z,73.69
2022-07-29T03:07:24.340Z,73.59
2022-07-29T03:08:23.328Z,73.69
2022-07-29T03:09:23.320Z,73.59
2022-07-29T03:10:23.308Z,73.90
2022-07-29T03:11:23.281Z,73.90
2022-07-29T03:12:24.308Z,73.99
2022-07-29T03:13:23.269Z,74.40
2022-07-29T03:14:23.260Z,74.40
2022-07-29T03:15:23.241Z,73.99
2022-07-29T03:16:23.271Z,74.30
2022-07-29T03:17:23.244Z,73.90
2022-07-29T03:18:23.219Z,74.60
2022-07-29T03:19:23.211Z,74.19
2022-07-29T03:20:23.199Z,74.10
2022-07-29T03:21:23.180Z,74.30
2022-07-29T03:22:23.180Z,73.99
2022-07-29T03:23:23.259Z,74.19
2022-07-29T03:24:23.163Z,74.70
2022-07-29T03:25:23.136Z,74.30
2022-07-29T03:26:23.132Z,73.99
2022-07-29T03:27:23.204Z,74.50
2022-07-29T03:28:23.101Z,74.30
2022-07-29T03:29:23.104Z,74.80
2022-07-29T03:30:23.123Z,73.69
2022-07-29T03:31:23.157Z,74.10
2022-07-29T03:32:25.157Z,73.99
2022-07-29T03:33:23.124Z,74.54
2022-07-29T03:34:23.432Z,74.54
2022-07-29T03:35:23.132Z,74.23
2022-07-29T03:36:23.165Z,74.13
2022-07-29T03:37:23.203Z,74.23
2022-07-29T03:38:23.122Z,74.43
2022-07-29T03:39:23.043Z,74.63
2022-07-29T03:40:23.214Z,74.43
2022-07-29T03:41:23.429Z,74.63
2022-07-29T03:42:23.293Z,74.23
2022-07-29T03:43:23.221Z,74.94
2022-07-29T03:44:23.256Z,74.63
2022-07-29T03:45:23.013Z,74.74
2022-07-29T03:46:23.328Z,74.54
2022-07-29T03:47:23.356Z,74.23
2022-07-29T03:48:23.896Z,74.33
2022-07-29T03:49:23.276Z,74.43
2022-07-29T03:50:23.345Z,74.63
2022-07-29T03:51:33.879Z,75.04
2022-07-29T03:52:23.846Z,74.43
2022-07-29T03:53:23.175Z,74.63
2022-07-29T03:54:23.358Z,74.63
2022-07-29T03:55:23.046Z,74.94
2022-07-29T03:56:23.096Z,75.45
2022-07-29T03:57:22.903Z,74.84
2022-07-29T03:58:23.161Z,74.84
2022-07-29T03:59:22.950Z,75.14
2022-07-29T04:00:22.967Z,74.23
2022-07-29T04:01:22.897Z,75.04
2022-07-29T04:02:26.212Z,74.43
2022-07-29T04:03:23.800Z,74.43
2022-07-29T04:04:22.710Z,74.40
2022-07-29T04:05:22.685Z,74.70
2022-07-29T04:06:22.677Z,74.70
2022-07-29T04:07:22.665Z,74.90
2022-07-29T04:08:22.690Z,74.70
2022-07-29T04:09:22.637Z,74.90
2022-07-29T04:10:28.299Z,74.90
2022-07-29T04:11:23.618Z,74.60
2022-07-29T04:12:22.623Z,74.40
2022-07-29T04:13:22.598Z,74.80
2022-07-29T04:14:22.618Z,74.70
2022-07-29T04:15:22.579Z,74.60
2022-07-29T04:16:22.748Z,74.10
2022-07-29T04:17:22.569Z,74.10
2022-07-29T04:18:22.549Z,74.19
2022-07-29T04:19:22.550Z,74.40
2022-07-29T04:20:22.538Z,74.60
2022-07-29T04:21:22.523Z,74.90
2022-07-29T04:22:22.490Z,74.80
2022-07-29T04:23:22.501Z,74.90
2022-07-29T04:24:22.481Z,74.90
2022-07-29T04:25:22.492Z,74.40
2022-07-29T04:26:22.473Z,75.10
2022-07-29T04:27:22.453Z,74.30
2022-07-29T04:28:22.446Z,74.90
2022-07-29T04:29:22.425Z,75.41
2022-07-29T04:30:22.409Z,75.31
2022-07-29T04:31:25.743Z,74.90
2022-07-29T04:32:22.400Z,75.71
2022-07-29T04:33:22.410Z,74.30
2022-07-29T04:34:22.370Z,75.21
2022-07-29T04:35:22.361Z,75.10
2022-07-29T04:36:29.388Z,75.17
2022-07-29T04:37:23.397Z,74.50
2022-07-29T04:38:22.321Z,75.07
2022-07-29T04:39:23.226Z,75.48
2022-07-29T04:40:22.283Z,76.18
2022-07-29T04:41:22.293Z,75.17
2022-07-29T04:42:27.680Z,75.07
2022-07-29T04:43:23.664Z,75.27
2022-07-29T04:44:22.275Z,75.37
2022-07-29T04:45:23.482Z,75.27
2022-07-29T04:46:22.279Z,74.87
2022-07-29T04:47:22.237Z,74.97
2022-07-29T04:48:28.239Z,75.37
2022-07-29T04:49:23.939Z,74.66
2022-07-29T04:50:22.188Z,74.57
2022-07-29T04:51:22.193Z,73.05
2022-07-29T04:52:22.162Z,74.97
2022-07-29T04:53:22.169Z,74.06
2022-07-29T04:54:22.154Z,73.86
2022-07-29T04:55:22.908Z,74.87
2022-07-29T04:56:22.146Z,74.16
2022-07-29T04:57:22.115Z,74.53
2022-07-29T04:58:22.124Z,73.62
2022-07-29T04:59:22.093Z,74.73
2022-07-29T05:00:22.094Z,75.04
2022-07-29T05:01:23.150Z,74.63
2022-07-29T05:02:22.078Z,75.24
2022-07-29T05:03:22.052Z,74.53
2022-07-29T05:04:22.025Z,74.63
2022-07-29T05:05:22.047Z,75.04
2022-07-29T05:06:22.006Z,74.43
2022-07-29T05:07:22.005Z,74.73
2022-07-29T05:08:21.988Z,73.52
2022-07-29T05:09:21.987Z,74.02
2022-07-29T05:10:21.988Z,73.79
2022-07-29T05:11:24.977Z,74.40
2022-07-29T05:12:22.939Z,73.89
2022-07-29T05:13:21.939Z,73.49
2022-07-29T05:14:21.919Z,73.28
2022-07-29T05:15:21.999Z,73.69
2022-07-29T05:16:21.994Z,74.40
2022-07-29T05:17:21.899Z,73.99
2022-07-29T05:18:21.878Z,74.19
2022-07-29T05:19:21.870Z,73.15
2022-07-29T05:20:21.862Z,73.85
2022-07-29T05:21:21.895Z,73.35
2022-07-29T05:22:21.829Z,73.25
2022-07-29T05:23:21.821Z,73.65
2022-07-29T05:24:21.807Z,73.75
2022-07-29T05:25:21.819Z,73.85
2022-07-29T05:26:21.797Z,74.05
2022-07-29T05:27:21.793Z,73.45
2022-07-29T05:28:21.762Z,74.05
2022-07-29T05:29:44.863Z,72.75
2022-07-29T05:30:22.738Z,73.11
2022-07-29T05:31:21.809Z,73.72
2022-07-29T05:32:21.719Z,72.91
2022-07-29T05:33:36.046Z,73.52
2022-07-29T05:34:22.690Z,73.32
2022-07-29T05:35:21.690Z,74.52
2022-07-29T05:36:21.685Z,73.42
2022-07-29T05:37:21.670Z,72.51
2022-07-29T05:38:21.653Z,73.22
2022-07-29T05:39:21.650Z,73.22
2022-07-29T05:40:21.630Z,73.32
2022-07-29T05:41:21.662Z,72.91
2022-07-29T05:42:21.662Z,73.32
2022-07-29T05:43:21.690Z,73.82
2022-07-29T05:44:21.710Z,73.42
2022-07-29T05:45:21.757Z,73.32
2022-07-29T05:46:21.830Z,72.71
2022-07-29T05:47:21.786Z,73.01
2022-07-29T05:48:21.735Z,73.42
2022-07-29T05:49:23.128Z,73.92
2022-07-29T05:50:22.503Z,74.02
2022-07-29T05:51:21.515Z,74.12
2022-07-29T05:52:21.500Z,74.12
2022-07-29T05:53:21.559Z,73.82
2022-07-29T05:54:21.476Z,73.88
2022-07-29T05:55:21.546Z,74.08
2022-07-29T05:56:21.448Z,74.29
2022-07-29T05:57:21.463Z,74.19
2022-07-29T05:58:21.424Z,74.19
2022-07-29T05:59:21.422Z,72.88
2022-07-29T06:00:21.415Z,72.88
2022-07-29T06:01:21.429Z,73.48
2022-07-29T06:02:21.397Z,74.59
2022-07-29T06:03:21.388Z,73.08
2022-07-29T06:04:21.531Z,73.28
2022-07-29T06:05:21.366Z,73.68
2022-07-29T06:06:21.336Z,73.58
2022-07-29T06:07:21.360Z,73.28
2022-07-29T06:08:21.344Z,72.78
2022-07-29T06:09:21.319Z,73.79
2022-07-29T06:10:24.956Z,73.48
2022-07-29T06:11:22.331Z,73.18
2022-07-29T06:12:21.276Z,73.95
2022-07-29T06:13:21.290Z,74.26
2022-07-29T06:14:21.253Z,73.05
2022-07-29T06:15:21.247Z,72.85
2022-07-29T06:16:30.293Z,72.34
2022-07-29T06:17:22.280Z,72.24
2022-07-29T06:18:21.219Z,73.35
2022-07-29T06:19:21.199Z,73.14
2022-07-29T06:20:27.232Z,73.95
2022-07-29T06:21:22.179Z,72.85
2022-07-29T06:22:21.161Z,72.44
2022-07-29T06:23:21.167Z,71.94
2022-07-29T06:24:21.177Z,72.14
2022-07-29T06:25:21.140Z,72.44
2022-07-29T06:26:30.797Z,73.45
2022-07-29T06:27:22.118Z,73.21
2022-07-29T06:28:21.092Z,72.61
2022-07-29T06:29:21.102Z,71.60
2022-07-29T06:30:21.071Z,72.31
2022-07-29T06:31:21.167Z,71.91
2022-07-29T06:32:22.779Z,71.60
2022-07-29T06:33:21.072Z,71.40
2022-07-29T06:34:21.019Z,71.20
2022-07-29T06:35:39.329Z,71.00
2022-07-29T06:36:22.867Z,71.60
2022-07-29T06:37:21.012Z,70.90
2022-07-29T06:38:30.872Z,70.90
2022-07-29T06:39:22.147Z,70.50
2022-07-29T06:40:20.965Z,70.50
2022-07-29T06:41:20.964Z,69.38
2022-07-29T06:42:20.932Z,69.25
2022-07-29T06:43:20.952Z,67.74
2022-07-29T06:44:20.921Z,68.75
2022-07-29T06:45:20.923Z,68.95
2022-07-29T06:46:21.215Z,69.05
2022-07-29T06:47:20.901Z,70.66
2022-07-29T06:48:20.872Z,71.06
2022-07-29T06:49:20.909Z,69.65
2022-07-29T06:50:20.854Z,70.83
2022-07-29T06:51:22.274Z,70.32
2022-07-29T06:52:20.831Z,68.41
2022-07-29T06:53:20.824Z,69.42
2022-07-29T06:54:20.816Z,69.92
2022-07-29T06:55:25.060Z,70.63
2022-07-29T06:56:20.784Z,70.43
2022-07-29T06:57:20.783Z,70.63
2022-07-29T06:58:20.760Z,70.23
2022-07-29T06:59:28.373Z,71.33
2022-07-29T07:00:21.735Z,71.73
2022-07-29T07:01:20.800Z,71.73
2022-07-29T07:02:20.769Z,72.14
2022-07-29T07:03:20.702Z,71.13
2022-07-29T07:04:21.205Z,70.32
2022-07-29T07:05:20.695Z,68.91
2022-07-29T07:06:20.675Z,68.88
2022-07-29T07:07:20.674Z,69.29
2022-07-29T07:08:20.657Z,69.29
2022-07-29T07:09:20.683Z,69.89
2022-07-29T07:10:20.630Z,70.79
2022-07-29T07:11:20.620Z,69.38
2022-07-29T07:12:20.595Z,70.70
2022-07-29T07:13:20.598Z,70.89
2022-07-29T07:14:21.302Z,69.59
2022-07-29T07:15:20.588Z,69.18
2022-07-29T07:16:20.634Z,70.79
2022-07-29T07:17:20.559Z,70.46
2022-07-29T07:18:20.539Z,69.96
2022-07-29T07:19:20.539Z,70.86
2022-07-29T07:20:20.623Z,70.16
2022-07-29T07:21:20.512Z,69.76
2022-07-29T07:22:20.487Z,70.06
2022-07-29T07:23:20.519Z,69.06
2022-07-29T07:24:20.487Z,68.65
2022-07-29T07:25:20.471Z,66.94
2022-07-29T07:26:27.554Z,67.24
2022-07-29T07:27:20.470Z,68.75
2022-07-29T07:28:24.767Z,67.65
2022-07-29T07:29:20.432Z,67.85
2022-07-29T07:30:20.411Z,68.15
2022-07-29T07:31:20.463Z,67.94
2022-07-29T07:32:20.519Z,69.06
2022-07-29T07:33:20.398Z,70.03
2022-07-29T07:34:28.404Z,70.43
2022-07-29T07:35:21.364Z,71.13
2022-07-29T07:36:20.353Z,69.02
2022-07-29T07:37:20.355Z,69.72
2022-07-29T07:38:20.323Z,69.32
2022-07-29T07:39:20.339Z,70.03
2022-07-29T07:40:20.303Z,69.69
2022-07-29T07:41:20.325Z,68.79
2022-07-29T07:42:20.288Z,69.39
2022-07-29T07:43:20.275Z,68.88
2022-07-29T07:44:20.725Z,68.85
2022-07-29T07:45:20.256Z,68.15
2022-07-29T07:46:20.294Z,68.35
2022-07-29T07:47:20.236Z,68.12
2022-07-29T07:48:20.208Z,67.11
2022-07-29T07:49:20.317Z,66.11
2022-07-29T07:50:20.191Z,66.38
2022-07-29T07:51:20.207Z,64.58
2022-07-29T07:52:20.184Z,65.68
2022-07-29T07:53:20.168Z,65.78
2022-07-29T07:54:20.664Z,65.88
2022-07-29T07:55:20.148Z,67.29
2022-07-29T07:56:20.127Z,67.05
2022-07-29T07:57:20.135Z,67.35
2022-07-29T07:58:20.109Z,66.05
2022-07-29T07:59:20.147Z,65.85
2022-07-29T08:00:20.067Z,65.52
2022-07-29T08:01:20.248Z,65.92
2022-07-29T08:02:20.289Z,67.32
2022-07-29T08:03:20.059Z,65.82
2022-07-29T08:04:26.645Z,64.81
2022-07-29T08:05:21.027Z,65.28
2022-07-29T08:06:20.020Z,63.48
2022-07-29T08:07:20.033Z,67.09
2022-07-29T08:08:19.991Z,63.58
2022-07-29T08:09:29.439Z,63.98
2022-07-29T08:10:20.975Z,64.48
2022-07-29T08:11:19.971Z,64.48
2022-07-29T08:12:19.968Z,63.28
2022-07-29T08:13:19.951Z,62.98
2022-07-29T08:14:19.923Z,63.58
2022-07-29T08:15:19.924Z,63.68
2022-07-29T08:16:19.907Z,66.19
2022-07-29T08:17:19.897Z,63.89
2022-07-29T08:18:19.891Z,63.18
2022-07-29T08:19:19.885Z,63.45
2022-07-29T08:20:19.905Z,60.95
2022-07-29T08:21:19.851Z,60.95
2022-07-29T08:22:19.833Z,62.55
2022-07-29T08:23:19.832Z,62.72
2022-07-29T08:24:19.869Z,62.52
2022-07-29T08:25:19.804Z,59.79
2022-07-29T08:26:19.795Z,60.59
2022-07-29T08:27:41.878Z,61.40
2022-07-29T08:28:20.772Z,63.46
2022-07-29T08:29:20.216Z,62.56
2022-07-29T08:30:19.805Z,63.06
2022-07-29T08:31:19.795Z,61.16
2022-07-29T08:32:43.514Z,60.86
2022-07-29T08:33:20.715Z,61.07
2022-07-29T08:34:25.706Z,61.07
2022-07-29T08:35:20.697Z,60.16
2022-07-29T08:36:19.692Z,62.86
2022-07-29T08:37:19.676Z,62.56
2022-07-29T08:38:19.688Z,62.16
2022-07-29T08:39:19.656Z,63.33
2022-07-29T08:40:19.664Z,61.73
2022-07-29T08:41:19.637Z,61.63
2022-07-29T08:42:19.628Z,62.43
2022-07-29T08:43:19.632Z,62.93
2022-07-29T08:44:22.377Z,62.13
2022-07-29T08:45:20.577Z,63.10
2022-07-29T08:46:19.646Z,61.10
2022-07-29T08:47:19.568Z,61.51
2022-07-29T08:48:19.560Z,61.27
2022-07-29T08:49:19.623Z,60.88
2022-07-29T08:50:19.625Z,61.55
2022-07-29T08:51:19.521Z,60.95
2022-07-29T08:52:19.537Z,60.02
2022-07-29T08:53:19.493Z,58.42
2022-07-29T08:54:19.534Z,58.29
2022-07-29T08:55:21.448Z,59.69
2022-07-29T08:56:19.487Z,59.56
2022-07-29T08:57:19.469Z,58.76
2022-07-29T08:58:23.008Z,58.74
2022-07-29T08:59:20.429Z,58.14
2022-07-29T09:00:19.556Z,58.41
2022-07-29T09:01:19.570Z,58.61
2022-07-29T09:02:19.422Z,57.79
2022-07-29T09:03:19.509Z,56.99
2022-07-29T09:04:19.406Z,55.20
2022-07-29T09:05:19.441Z,57.49
2022-07-29T09:06:19.377Z,56.82
2022-07-29T09:07:19.358Z,56.70
2022-07-29T09:08:19.373Z,56.59
2022-07-29T09:09:19.339Z,56.70
2022-07-29T09:10:19.404Z,56.07
2022-07-29T09:11:19.305Z,54.95
2022-07-29T09:12:28.615Z,55.27
2022-07-29T09:13:20.285Z,55.05
2022-07-29T09:14:19.293Z,55.35
2022-07-29T09:15:19.266Z,53.86
2022-07-29T09:16:43.727Z,55.44
2022-07-29T09:17:20.259Z,55.25
2022-07-29T09:18:19.761Z,53.86
2022-07-29T09:19:20.245Z,54.48
2022-07-29T09:20:19.243Z,54.08
2022-07-29T09:21:19.197Z,53.39
2022-07-29T09:22:19.193Z,55.87
2022-07-29T09:23:24.339Z,55.44
2022-07-29T09:24:20.157Z,54.35
2022-07-29T09:25:19.158Z,55.72
2022-07-29T09:26:19.138Z,54.00
2022-07-29T09:27:19.129Z,52.91
2022-07-29T09:28:19.164Z,52.64
2022-07-29T09:29:19.110Z,52.44
2022-07-29T09:30:31.431Z,56.49
2022-07-29T09:31:20.146Z,55.29
2022-07-29T09:32:19.082Z,54.30
2022-07-29T09:33:19.062Z,54.17
2022-07-29T09:34:19.098Z,53.19
2022-07-29T09:35:19.042Z,52.00
2022-07-29T09:36:19.070Z,53.11
2022-07-29T09:37:19.019Z,51.30
2022-07-29T09:38:19.027Z,53.98
2022-07-29T09:39:18.990Z,51.87
2022-07-29T09:40:18.995Z,52.29
2022-07-29T09:41:19.034Z,52.49
2022-07-29T09:42:18.986Z,52.19
2022-07-29T09:43:18.950Z,54.05
2022-07-29T09:44:19.007Z,53.16
2022-07-29T09:45:18.946Z,52.84
2022-07-29T09:46:18.970Z,51.54
2022-07-29T09:47:18.914Z,50.63
2022-07-29T09:48:18.928Z,50.31
2022-07-29T09:49:18.969Z,49.32
2022-07-29T09:50:18.895Z,49.89
2022-07-29T09:51:21.386Z,49.49
2022-07-29T09:52:18.871Z,48.30
2022-07-29T09:53:19.546Z,48.90
2022-07-29T09:54:18.915Z,49.59
2022-07-29T09:55:19.788Z,49.71
2022-07-29T09:56:18.834Z,49.91
2022-07-29T09:57:18.842Z,50.90
2022-07-29T09:58:18.798Z,52.02
2022-07-29T09:59:18.823Z,48.47
2022-07-29T10:00:18.831Z,49.07
2022-07-29T10:01:18.831Z,50.68
2022-07-29T10:02:22.164Z,49.49
2022-07-29T10:03:19.805Z,49.69
2022-07-29T10:04:18.743Z,51.75
2022-07-29T10:05:18.718Z,53.31
2022-07-29T10:06:18.823Z,53.18
2022-07-29T10:07:18.698Z,52.76
2022-07-29T10:08:18.744Z,51.15
2022-07-29T10:09:18.703Z,50.16
2022-07-29T10:10:18.667Z,50.06
2022-07-29T10:11:18.679Z,48.97
2022-07-29T10:12:18.675Z,48.97
2022-07-29T10:13:18.831Z,48.80
2022-07-29T10:14:18.668Z,49.81
2022-07-29T10:15:18.606Z,50.90
2022-07-29T10:16:18.680Z,51.62
2022-07-29T10:17:18.603Z,50.34
2022-07-29T10:18:18.727Z,51.60
2022-07-29T10:19:18.563Z,48.82
2022-07-29T10:20:18.574Z,49.22
2022-07-29T10:21:35.326Z,48.63
2022-07-29T10:22:50.448Z,49.71
2022-07-29T10:23:19.527Z,49.91
2022-07-29T10:24:18.523Z,49.81
2022-07-29T10:25:18.528Z,51.70
2022-07-29T10:26:18.507Z,53.25
2022-07-29T10:27:18.479Z,49.99
2022-07-29T10:28:18.490Z,49.37
2022-07-29T10:29:18.491Z,52.04
2022-07-29T10:30:18.463Z,48.95
2022-07-29T10:31:18.517Z,50.34
2022-07-29T10:32:18.436Z,48.24
2022-07-29T10:33:18.499Z,49.62
2022-07-29T10:34:18.528Z,48.14
2022-07-29T10:35:18.499Z,46.85
2022-07-29T10:36:18.638Z,48.95
2022-07-29T10:37:18.556Z,48.85
2022-07-29T10:38:18.593Z,47.59
2022-07-29T10:39:18.611Z,47.41
2022-07-29T10:40:18.657Z,47.63
2022-07-29T10:41:19.597Z,47.83
2022-07-29T10:42:20.127Z,48.53
2022-07-29T10:43:19.332Z,50.51
2022-07-29T10:44:19.467Z,51.30
2022-07-29T10:45:18.300Z,50.68
2022-07-29T10:46:18.353Z,51.37
2022-07-29T10:47:18.263Z,49.47
2022-07-29T10:48:18.287Z,47.19
2022-07-29T10:49:18.350Z,49.59
2022-07-29T10:50:18.285Z,48.08
2022-07-29T10:51:18.223Z,50.06
2022-07-29T10:52:18.226Z,50.93
2022-07-29T10:53:18.208Z,48.85
2022-07-29T10:54:18.227Z,47.66
2022-07-29T10:55:18.241Z,50.21
2022-07-29T10:56:18.241Z,48.14
2022-07-29T10:57:18.171Z,49.49
2022-07-29T10:58:18.241Z,48.09
2022-07-29T10:59:18.128Z,50.04
2022-07-29T11:00:18.156Z,46.29
2022-07-29T11:01:18.108Z,45.13
2022-07-29T11:02:41.146Z,46.44
2022-07-29T11:03:19.220Z,48.93
2022-07-29T11:04:18.096Z,48.63
2022-07-29T11:05:18.088Z,48.73
2022-07-29T11:06:18.155Z,49.42
2022-07-29T11:07:19.301Z,48.43
2022-07-29T11:08:20.287Z,48.85
2022-07-29T11:09:18.059Z,48.65
2022-07-29T11:10:18.047Z,47.69
2022-07-29T11:11:18.046Z,50.26
2022-07-29T11:12:18.008Z,50.26
2022-07-29T11:13:17.988Z,48.77
2022-07-29T11:14:18.016Z,51.15
2022-07-29T11:15:18.007Z,49.10
2022-07-29T11:16:17.966Z,48.30
2022-07-29T11:17:17.943Z,49.02
2022-07-29T11:18:17.944Z,50.31
2022-07-29T11:19:26.220Z,52.88
2022-07-29T11:20:18.940Z,51.60
2022-07-29T11:21:17.912Z,51.70
2022-07-29T11:22:19.091Z,50.81
2022-07-29T11:23:18.883Z,52.19
2022-07-29T11:24:18.555Z,51.50
2022-07-29T11:25:17.893Z,53.48
2022-07-29T11:26:18.567Z,50.51
2022-07-29T11:27:19.638Z,53.18
2022-07-29T11:28:23.086Z,53.38
2022-07-29T11:29:18.817Z,52.19
2022-07-29T11:30:17.845Z,52.78
2022-07-29T11:31:17.796Z,52.98
2022-07-29T11:32:18.358Z,51.20
2022-07-29T11:33:18.788Z,49.94
2022-07-29T11:34:18.776Z,48.94
2022-07-29T11:35:18.896Z,50.76
2022-07-29T11:36:17.748Z,52.64
2022-07-29T11:37:18.015Z,52.04
2022-07-29T11:38:17.748Z,51.54
2022-07-29T11:39:17.707Z,52.14
2022-07-29T11:40:18.295Z,53.75
2022-07-29T11:41:17.688Z,52.76
2022-07-29T11:42:28.480Z,51.28
2022-07-29T11:43:19.384Z,51.97
2022-07-29T11:44:18.059Z,53.36
2022-07-29T11:45:42.624Z,52.17
2022-07-29T11:46:18.665Z,52.17
2022-07-29T11:47:18.638Z,52.56
2022-07-29T11:48:28.912Z,54.15
2022-07-29T11:49:18.654Z,53.33
2022-07-29T11:50:17.603Z,52.94
2022-07-29T11:51:17.589Z,52.22
2022-07-29T11:52:17.567Z,53.41
2022-07-29T11:53:17.548Z,51.99
2022-07-29T11:54:17.548Z,52.56
2022-07-29T11:55:17.742Z,50.58
2022-07-29T11:56:17.520Z,47.61
2022-07-29T11:57:17.517Z,49.79
2022-07-29T11:58:17.501Z,50.51
2022-07-29T11:59:17.489Z,49.52
2022-07-29T12:00:18.688Z,51.79
2022-07-29T12:01:17.481Z,51.60
2022-07-29T12:02:37.138Z,53.11
2022-07-29T12:03:18.509Z,53.20
2022-07-29T12:04:17.440Z,53.20
2022-07-29T12:05:35.961Z,53.31
2022-07-29T12:06:20.912Z,52.22
2022-07-29T12:07:17.402Z,52.64
2022-07-29T12:08:17.415Z,53.23
2022-07-29T12:09:17.373Z,51.15
2022-07-29T12:10:19.958Z,51.47
2022-07-29T12:11:20.555Z,52.26
2022-07-29T12:12:17.362Z,51.28
2022-07-29T12:13:17.337Z,52.69
2022-07-29T12:14:17.340Z,53.58
2022-07-29T12:15:17.304Z,51.60
2022-07-29T12:16:25.911Z,54.28
2022-07-29T12:17:18.294Z,53.70
2022-07-29T12:18:18.411Z,53.21
2022-07-29T12:19:17.277Z,54.00
2022-07-29T12:20:17.266Z,55.32
2022-07-29T12:21:17.265Z,51.45
2022-07-29T12:22:17.258Z,51.35
2022-07-29T12:23:17.251Z,53.04
2022-07-29T12:24:17.229Z,54.53
2022-07-29T12:25:32.445Z,52.14
2022-07-29T12:26:21.698Z,51.07
2022-07-29T12:27:18.189Z,52.37
2022-07-29T12:28:18.588Z,52.86
2022-07-29T12:29:20.488Z,55.25
2022-07-29T12:30:18.185Z,57.73
2022-07-29T12:31:43.727Z,54.75
2022-07-29T12:32:19.749Z,56.84
2022-07-29T12:33:17.121Z,53.76
2022-07-29T12:34:17.124Z,55.44
2022-07-29T12:35:17.098Z,53.69
2022-07-29T12:36:17.896Z,53.28
2022-07-29T12:37:17.090Z,56.27
2022-07-29T12:38:17.074Z,57.86
2022-07-29T12:39:17.053Z,54.97
2022-07-29T12:40:17.058Z,56.17
2022-07-29T12:41:17.042Z,58.65
2022-07-29T12:42:18.490Z,52.99
2022-07-29T12:43:17.025Z,54.58
2022-07-29T12:44:17.016Z,56.67
2022-07-29T12:45:16.990Z,57.46
2022-07-29T12:46:17.062Z,59.25
2022-07-29T12:47:17.007Z,55.77
2022-07-29T12:48:16.965Z,53.09
2022-07-29T12:49:16.985Z,53.88
2022-07-29T12:50:16.938Z,54.08
2022-07-29T12:51:16.933Z,53.39
2022-07-29T12:52:16.925Z,54.88